Time;durP1;ratioP1;P1;durP2;ratioP2;P2;SDS_P1;SDS_P2;PMS_P1;PMS_P2;Temp;Humidity;BMP_temperature;BMP_pressure;BME280_temperature;BME280_humidity;BME280_pressure;Samples;Min_cycle;Max_cycle;Signal;HPM_P1;HPM_P2
2022/03/24 00:02:00;;;;;;;9.30;7.90;;;;;;;9.48;45.73;96419.56;4386328;32;20197;-64
2022/03/24 00:04:26;;;;;;;9.80;8.03;;;;;;;9.64;45.38;96428.34;4371864;32;20249;-64
2022/03/24 00:06:51;;;;;;;10.13;8.50;;;;;;;9.68;45.40;96420.69;4362376;32;20201;-64
2022/03/24 00:09:17;;;;;;;8.77;7.63;;;;;;;9.26;46.20;96427.66;4378308;32;20198;-64
2022/03/24 00:11:42;;;;;;;8.80;8.00;;;;;;;9.56;45.69;96418.28;4389308;32;20245;-64
2022/03/24 00:14:08;;;;;;;8.73;7.93;;;;;;;9.42;45.99;96417.94;4377880;32;20356;-64
2022/03/24 00:16:33;;;;;;;8.73;7.63;;;;;;;9.22;46.51;96413.34;4377999;32;20281;-64
2022/03/24 00:18:59;;;;;;;9.93;7.80;;;;;;;9.20;46.61;96415.44;4377436;32;20192;-64
2022/03/24 00:21:25;;;;;;;11.93;8.43;;;;;;;9.17;46.61;96415.16;4374751;32;20188;-64
2022/03/24 00:23:51;;;;;;;9.27;7.97;;;;;;;9.36;46.28;96416.31;4374014;32;20262;-64
2022/03/24 00:26:16;;;;;;;8.83;7.67;;;;;;;9.41;46.23;96418.97;4379497;32;20269;-63
2022/03/24 00:28:42;;;;;;;8.73;7.50;;;;;;;9.33;46.37;96416.84;4376776;32;20249;-64
2022/03/24 00:31:08;;;;;;;8.40;7.57;;;;;;;9.18;46.88;96419.41;4376981;32;20232;-64
2022/03/24 00:33:34;;;;;;;8.40;7.47;;;;;;;8.93;47.38;96412.94;4387756;32;20232;-64
2022/03/24 00:35:59;;;;;;;8.13;7.13;;;;;;;8.89;48.17;96418.97;4391303;32;20333;-64
2022/03/24 00:38:26;;;;;;;8.93;7.27;;;;;;;8.87;47.85;96413.16;4378579;32;20238;-64
2022/03/24 00:40:51;;;;;;;12.47;7.37;;;;;;;9.07;47.47;96413.25;4387295;32;20184;-64
2022/03/24 00:43:17;;;;;;;9.33;8.37;;;;;;;8.90;47.55;96412.63;4386926;32;20401;-63
2022/03/24 00:45:43;;;;;;;10.20;7.70;;;;;;;9.10;47.37;96411.97;4382501;32;20216;-64
2022/03/24 00:48:08;;;;;;;10.53;7.63;;;;;;;9.04;47.44;96408.47;4369936;32;20181;-63
2022/03/24 00:50:35;;;;;;;8.70;7.37;;;;;;;8.90;47.94;96408.16;4377187;32;20294;-64
2022/03/24 00:53:01;;;;;;;8.40;7.30;;;;;;;8.80;48.10;96405.41;4363364;32;20206;-64
2022/03/24 00:55:26;;;;;;;7.37;6.77;;;;;;;8.85;48.27;96405.47;4374632;32;20292;-64
2022/03/24 00:57:55;;;;;;;8.07;7.10;;;;;;;8.64;48.55;96401.09;4382627;32;20243;-63
2022/03/24 01:00:25;;;;;;;10.43;6.97;;;;;;;8.87;48.31;96405.22;4374852;32;20206;-63
2022/03/24 01:02:53;;;;;;;8.30;7.50;;;;;;;8.53;48.93;96400.19;4379324;32;20297;-64
2022/03/24 01:05:20;;;;;;;11.53;6.83;;;;;;;8.70;48.78;96399.28;4372519;32;20321;-63
2022/03/24 01:07:46;;;;;;;7.53;6.80;;;;;;;8.77;48.61;96394.53;4360941;32;20386;-63
2022/03/24 01:10:13;;;;;;;7.83;6.83;;;;;;;8.78;48.65;96396.94;4363095;32;20333;-64
2022/03/24 01:12:40;;;;;;;8.83;6.67;;;;;;;8.57;49.28;96392.56;4363186;32;20284;-64
2022/03/24 01:15:07;;;;;;;11.37;6.97;;;;;;;8.57;49.32;96400.50;4366781;32;20276;-64
2022/03/24 01:17:33;;;;;;;7.67;6.87;;;;;;;8.65;49.34;96399.22;4391899;32;20283;-64
2022/03/24 01:19:59;;;;;;;9.37;7.47;;;;;;;8.39;50.05;96399.03;4364530;32;20280;-64
2022/03/24 01:22:24;;;;;;;7.83;6.90;;;;;;;8.35;50.86;96391.84;4378153;32;20276;-64
2022/03/24 01:24:50;;;;;;;7.80;7.00;;;;;;;8.49;50.52;96391.19;4377103;32;20181;-63
2022/03/24 01:27:16;;;;;;;8.30;6.90;;;;;;;8.52;50.50;96392.53;4380745;32;20209;-64
2022/03/24 01:29:42;;;;;;;7.00;6.40;;;;;;;8.50;50.29;96399.94;4362822;32;20394;-64
2022/03/24 01:32:08;;;;;;;8.23;6.57;;;;;;;8.58;50.24;96394.94;4375478;32;20192;-64
2022/03/24 01:34:39;;;;;;;7.27;6.57;;;;;;;8.54;50.51;96393.06;4366029;32;20307;-63
2022/03/24 01:37:08;;;;;;;7.43;6.60;;;;;;;8.51;50.59;96391.75;4375345;32;20315;-64
2022/03/24 01:39:33;;;;;;;6.50;6.00;;;;;;;8.60;50.49;96387.56;4363319;32;20277;-63
2022/03/24 01:42:00;;;;;;;8.77;6.20;;;;;;;8.43;51.19;96386.13;4375200;32;20273;-64
2022/03/24 01:44:27;;;;;;;7.90;5.93;;;;;;;8.38;51.48;96386.06;4375279;32;20193;-64
2022/03/24 01:47:07;;;;;;;6.00;5.50;;;;;;;8.41;51.30;96381.06;4381487;32;20299;-64
2022/03/24 01:49:35;;;;;;;7.03;6.43;;;;;;;8.45;51.23;96384.03;4363298;32;20280;-63
2022/03/24 01:52:02;;;;;;;7.30;6.50;;;;;;;8.61;50.90;96378.56;4388283;32;20290;-64
2022/03/24 01:54:31;;;;;;;6.33;5.83;;;;;;;8.75;50.58;96375.47;4386876;32;20303;-64
2022/03/24 01:56:58;;;;;;;7.07;6.47;;;;;;;8.84;50.45;96374.75;4370947;32;20273;-63
2022/03/24 01:59:24;;;;;;;11.20;6.37;;;;;;;8.72;50.82;96381.31;4374779;32;20277;-63
2022/03/24 02:01:50;;;;;;;6.03;5.53;;;;;;;8.77;50.55;96379.47;4363486;32;20273;-64
2022/03/24 02:04:15;;;;;;;8.03;6.30;;;;;;;8.87;50.27;96373.47;4376256;32;20185;-64
2022/03/24 02:06:41;;;;;;;8.43;5.93;;;;;;;8.76;50.32;96374.44;4376157;32;20370;-64
2022/03/24 02:09:07;;;;;;;7.47;5.43;;;;;;;8.71;50.61;96369.94;4378545;32;20219;-63
2022/03/24 02:11:36;;;;;;;6.57;5.90;;;;;;;8.78;50.44;96367.03;4373043;32;20204;-63
2022/03/24 02:14:03;;;;;;;8.00;6.00;;;;;;;8.65;50.82;96370.12;4375238;32;20312;-64
2022/03/24 02:16:34;;;;;;;6.97;5.97;;;;;;;8.68;50.68;96364.34;4383298;32;20288;-64
2022/03/24 02:19:15;;;;;;;8.47;6.20;;;;;;;8.56;51.07;96367.97;4359734;32;20288;-63
2022/03/24 02:21:42;;;;;;;6.00;5.50;;;;;;;8.39;51.55;96363.88;4374426;32;20273;-64
2022/03/24 02:24:08;;;;;;;8.67;5.70;;;;;;;8.50;51.64;96365.56;4379296;32;20334;-64
2022/03/24 02:26:36;;;;;;;5.97;5.47;;;;;;;8.55;51.26;96363.72;4391281;32;20324;-63
2022/03/24 02:29:06;;;;;;;6.43;5.90;;;;;;;8.52;51.45;96368.75;4366672;32;20308;-64
2022/03/24 02:31:37;;;;;;;7.13;6.00;;;;;;;8.53;51.30;96365.81;4380002;32;20359;-64
2022/03/24 02:36:47;;;;;;;6.33;5.73;;;;;;;8.45;51.69;96363.66;4375739;32;20360;-63
2022/03/24 02:39:12;;;;;;;7.37;6.37;;;;;;;8.37;51.93;96365.97;4376731;32;20269;-63
2022/03/24 02:41:45;;;;;;;6.37;5.40;;;;;;;8.33;52.43;96365.66;4363623;32;20176;-64
2022/03/24 02:44:14;;;;;;;7.10;6.50;;;;;;;8.36;52.38;96364.38;4375981;32;20203;-64
2022/03/24 02:46:43;;;;;;;6.50;5.90;;;;;;;8.36;52.40;96357.25;4362288;32;20268;-64
2022/03/24 02:49:09;;;;;;;6.83;5.97;;;;;;;8.21;52.82;96363.19;4361893;32;20269;-64
2022/03/24 02:51:34;;;;;;;6.27;5.77;;;;;;;8.16;52.98;96365.78;4376289;32;20323;-64
2022/03/24 02:54:00;;;;;;;6.37;5.73;;;;;;;8.20;53.08;96369.50;4375180;32;20288;-64
2022/03/24 02:56:25;;;;;;;7.90;5.90;;;;;;;8.13;53.31;96365.47;4375926;32;20208;-64
2022/03/24 02:58:50;;;;;;;9.13;6.63;;;;;;;7.97;53.95;96364.56;4364618;32;20192;-64
2022/03/24 03:01:18;;;;;;;7.33;6.30;;;;;;;7.92;54.34;96369.78;4362342;32;20239;-64
2022/03/24 03:03:43;;;;;;;7.17;6.47;;;;;;;7.70;55.25;96369.81;4361538;32;20208;-64
2022/03/24 03:06:09;;;;;;;6.87;6.17;;;;;;;7.85;55.11;96374.50;4372587;32;20296;-63
2022/03/24 03:08:34;;;;;;;8.13;6.60;;;;;;;7.83;55.17;96369.44;4385869;32;20253;-64
2022/03/24 03:10:59;;;;;;;7.67;6.87;;;;;;;7.92;55.27;96372.41;4375500;32;20203;-63
2022/03/24 03:13:24;;;;;;;8.83;6.40;;;;;;;7.84;55.81;96370.25;4375297;32;20230;-63
2022/03/24 03:15:50;;;;;;;9.00;6.50;;;;;;;7.86;55.73;96376.09;4377853;32;20184;-64
2022/03/24 03:18:15;;;;;;;7.73;6.10;;;;;;;7.93;55.17;96368.72;4375135;32;20181;-64
2022/03/24 03:20:40;;;;;;;6.77;6.17;;;;;;;7.59;56.19;96381.34;4374829;32;20181;-63
2022/03/24 03:23:06;;;;;;;6.87;5.73;;;;;;;7.58;56.25;96375.25;4376987;32;20203;-64
2022/03/24 03:25:31;;;;;;;7.07;5.80;;;;;;;7.77;55.81;96367.78;4366575;32;20227;-64
2022/03/24 03:27:59;;;;;;;6.77;6.10;;;;;;;7.77;55.28;96382.84;4391677;32;20176;-64
2022/03/24 03:30:24;;;;;;;7.90;6.33;;;;;;;7.81;55.02;96381.31;4374726;32;20247;-64
2022/03/24 03:32:50;;;;;;;8.27;6.13;;;;;;;7.78;55.12;96374.69;4376732;32;20322;-64
2022/03/24 03:35:15;;;;;;;6.60;5.83;;;;;;;7.89;54.94;96373.75;4363828;32;20177;-64
2022/03/24 03:37:41;;;;;;;7.93;6.50;;;;;;;7.87;54.98;96372.41;4382665;32;20192;-64
2022/03/24 03:40:06;;;;;;;6.90;6.20;;;;;;;7.78;55.13;96368.59;4383538;32;20176;-64
2022/03/24 03:42:32;;;;;;;9.23;5.93;;;;;;;7.84;54.79;96371.03;4370082;32;20181;-64
2022/03/24 03:44:57;;;;;;;10.17;5.43;;;;;;;7.81;55.10;96376.81;4360190;32;20199;-64
2022/03/24 03:47:22;;;;;;;8.07;6.20;;;;;;;7.80;54.84;96379.72;4376646;32;20289;-63
2022/03/24 03:49:48;;;;;;;6.93;6.23;;;;;;;7.69;55.21;96378.03;4368483;32;20188;-65
2022/03/24 03:52:13;;;;;;;9.30;6.80;;;;;;;7.62;55.47;96382.69;4376715;32;20222;-64
2022/03/24 03:54:38;;;;;;;9.80;6.77;;;;;;;7.73;55.15;96376.47;4374285;32;20238;-64
2022/03/24 03:57:04;;;;;;;9.60;6.33;;;;;;;7.86;54.63;96382.16;4392132;32;20227;-64
2022/03/24 03:59:30;;;;;;;7.20;5.40;;;;;;;7.69;54.92;96385.94;4385789;32;20184;-64
2022/03/24 04:01:57;;;;;;;6.47;5.73;;;;;;;7.75;54.65;96379.66;4393062;32;20196;-63
2022/03/24 04:04:23;;;;;;;8.83;5.77;;;;;;;7.72;54.83;96375.66;4371048;32;20230;-64
2022/03/24 04:06:48;;;;;;;7.87;5.87;;;;;;;7.85;54.23;96377.94;4379066;32;20277;-64
2022/03/24 04:09:14;;;;;;;8.60;5.67;;;;;;;7.83;54.25;96369.44;4363389;32;20252;-63
2022/03/24 04:11:40;;;;;;;6.07;5.47;;;;;;;7.70;54.59;96376.94;4377394;32;20201;-64
2022/03/24 04:14:05;;;;;;;6.47;5.87;;;;;;;7.83;54.24;96381.84;4376196;32;20185;-63
2022/03/24 04:16:30;;;;;;;7.40;6.03;;;;;;;7.88;54.05;96368.72;4371786;32;20193;-64
2022/03/24 04:18:55;;;;;;;6.33;5.07;;;;;;;7.96;53.77;96370.88;4386886;32;20217;-63
2022/03/24 04:21:21;;;;;;;5.53;5.07;;;;;;;7.88;53.60;96374.78;4370421;32;20236;-64
2022/03/24 04:23:47;;;;;;;7.20;5.50;;;;;;;7.81;53.94;96370.75;4391863;32;20267;-64
2022/03/24 04:26:13;;;;;;;5.67;5.10;;;;;;;7.90;53.73;96377.16;4390049;32;20291;-64
2022/03/24 04:28:40;;;;;;;7.13;5.13;;;;;;;7.84;54.03;96378.16;4377222;32;20243;-64
2022/03/24 04:31:05;;;;;;;7.73;4.90;;;;;;;7.74;54.31;96370.12;4377070;32;20211;-63
2022/03/24 04:33:31;;;;;;;5.70;5.20;;;;;;;7.67;54.54;96377.47;4376477;32;20277;-64
2022/03/24 04:35:58;;;;;;;7.60;5.13;;;;;;;7.62;54.68;96374.78;4375161;32;20197;-63
2022/03/24 04:38:24;;;;;;;5.57;5.07;;;;;;;7.71;54.33;96382.00;4361959;32;20287;-64
2022/03/24 04:40:49;;;;;;;5.67;4.97;;;;;;;7.45;55.15;96380.13;4365540;32;20268;-63
2022/03/24 04:43:15;;;;;;;9.90;5.30;;;;;;;7.39;55.57;96384.56;4392066;32;20192;-64
2022/03/24 04:45:40;;;;;;;5.77;5.20;;;;;;;7.44;55.30;96379.34;4374462;32;20189;-63
2022/03/24 04:48:06;;;;;;;6.37;5.03;;;;;;;7.57;54.83;96375.50;4374842;32;20311;-64
2022/03/24 04:50:31;;;;;;;6.90;5.27;;;;;;;7.56;54.81;96376.56;4361603;32;20227;-64
2022/03/24 04:52:57;;;;;;;11.00;4.77;;;;;;;7.54;54.97;96378.63;4374697;32;20287;-64
2022/03/24 04:55:22;;;;;;;4.90;4.50;;;;;;;7.42;55.30;96381.44;4387863;32;20196;-64
2022/03/24 04:57:47;;;;;;;5.13;4.77;;;;;;;7.55;54.84;96380.25;4373614;32;20185;-64
2022/03/24 05:00:16;;;;;;;5.60;4.40;;;;;;;7.52;54.88;96378.09;4384563;32;20203;-64
2022/03/24 05:02:41;;;;;;;4.70;4.23;;;;;;;7.53;54.56;96377.84;4390447;32;20197;-64
2022/03/24 05:05:07;;;;;;;5.30;4.73;;;;;;;7.64;54.50;96385.88;4380095;32;20287;-64
2022/03/24 05:07:33;;;;;;;6.20;5.40;;;;;;;7.46;55.20;96382.53;4361900;32;20212;-63
2022/03/24 05:09:58;;;;;;;4.70;4.30;;;;;;;7.61;54.62;96389.03;4378612;32;20188;-64
2022/03/24 05:12:23;;;;;;;5.20;4.80;;;;;;;7.51;54.60;96379.94;4384730;32;20181;-63
2022/03/24 05:14:50;;;;;;;5.43;4.93;;;;;;;7.25;55.32;96385.97;4385001;32;20221;-64
2022/03/24 05:17:15;;;;;;;4.53;4.00;;;;;;;7.18;55.79;96380.87;4389481;32;20184;-64
2022/03/24 05:19:41;;;;;;;6.03;4.83;;;;;;;6.98;56.79;96385.88;4360373;32;20344;-64
2022/03/24 05:22:07;;;;;;;5.63;4.97;;;;;;;7.22;56.65;96389.09;4383377;32;20305;-63
2022/03/24 05:24:32;;;;;;;5.97;4.60;;;;;;;7.20;56.10;96385.91;4376859;32;20180;-63
2022/03/24 05:26:58;;;;;;;6.93;4.90;;;;;;;7.30;55.75;96393.94;4391647;32;20299;-63
2022/03/24 05:29:23;;;;;;;5.00;4.53;;;;;;;7.19;56.29;96395.66;4386767;32;20243;-63
2022/03/24 05:31:48;;;;;;;6.77;5.20;;;;;;;7.16;56.33;96387.44;4377825;32;20258;-64
2022/03/24 05:34:14;;;;;;;5.93;5.17;;;;;;;7.03;57.05;96388.59;4388142;32;20180;-64
2022/03/24 05:36:39;;;;;;;7.03;4.87;;;;;;;7.05;56.57;96391.00;4374863;32;20222;-63
2022/03/24 05:39:05;;;;;;;7.07;5.10;;;;;;;6.99;57.00;96397.25;4375318;32;20271;-64
2022/03/24 05:41:30;;;;;;;5.87;5.03;;;;;;;6.99;57.12;96391.97;4375030;32;20192;-64
2022/03/24 05:44:02;;;;;;;6.37;5.60;;;;;;;6.86;57.43;96382.53;4384635;32;20225;-64
2022/03/24 05:46:49;;;;;;;5.20;4.80;;;;;;;6.98;57.18;96390.38;4381558;32;20188;-64
2022/03/24 05:49:16;;;;;;;8.87;5.73;;;;;;;7.02;56.92;96391.47;4381946;32;20281;-64
2022/03/24 05:51:43;;;;;;;5.50;4.87;;;;;;;6.99;57.24;96399.88;4377510;32;20406;-64
2022/03/24 05:54:10;;;;;;;5.97;5.37;;;;;;;7.07;56.70;96394.16;4389368;32;20351;-64
2022/03/24 05:56:35;;;;;;;5.70;5.20;;;;;;;6.79;57.37;96398.56;4378532;32;20388;-64
2022/03/24 05:59:01;;;;;;;6.60;5.57;;;;;;;6.89;57.18;96400.53;4365394;32;20264;-64
2022/03/24 06:01:26;;;;;;;5.80;5.13;;;;;;;6.87;57.28;96399.97;4374837;32;20184;-63
2022/03/24 06:03:52;;;;;;;5.20;4.70;;;;;;;6.90;57.36;96405.56;4375916;32;20184;-64
2022/03/24 06:06:18;;;;;;;8.60;5.17;;;;;;;7.10;56.97;96398.97;4374848;32;20259;-64
2022/03/24 06:08:44;;;;;;;5.87;5.47;;;;;;;7.05;57.20;96397.06;4375936;32;20560;-65
2022/03/24 06:11:13;;;;;;;8.03;6.10;;;;;;;7.20;56.87;96397.25;4382327;32;20326;-64
2022/03/24 06:13:40;;;;;;;7.93;5.87;;;;;;;7.33;56.50;96403.22;4380404;32;20244;-64
2022/03/24 06:16:06;;;;;;;11.27;6.07;;;;;;;7.35;56.51;96404.56;4380139;32;20324;-64
2022/03/24 06:18:32;;;;;;;10.07;6.20;;;;;;;7.41;56.57;96406.22;4384837;32;20276;-64
2022/03/24 06:20:59;;;;;;;9.03;5.77;;;;;;;7.45;56.56;96402.06;4362890;32;20188;-64
2022/03/24 06:23:25;;;;;;;11.40;5.43;;;;;;;7.45;56.51;96412.63;4376213;32;20268;-64
2022/03/24 06:25:50;;;;;;;8.83;5.67;;;;;;;7.27;57.20;96409.50;4375795;32;20287;-64
2022/03/24 06:28:16;;;;;;;13.33;5.70;;;;;;;7.32;57.02;96407.69;4374861;32;20185;-64
2022/03/24 06:30:41;;;;;;;12.57;5.63;;;;;;;7.43;57.10;96409.41;4384971;32;20187;-64
2022/03/24 06:33:06;;;;;;;7.60;5.93;;;;;;;7.36;57.07;96416.72;4379242;32;20218;-64
2022/03/24 06:35:32;;;;;;;9.03;5.50;;;;;;;7.46;57.13;96408.12;4373431;32;20224;-64
2022/03/24 06:37:57;;;;;;;10.93;5.43;;;;;;;7.48;56.99;96409.47;4362604;32;20232;-64
2022/03/24 06:40:22;;;;;;;8.97;5.33;;;;;;;7.65;56.71;96413.91;4366294;32;20218;-64
2022/03/24 06:42:48;;;;;;;10.27;5.00;;;;;;;7.53;56.94;96417.44;4373486;32;20202;-64
2022/03/24 06:45:14;;;;;;;8.70;5.43;;;;;;;7.62;56.57;96412.53;4387845;32;20246;-64
2022/03/24 06:47:40;;;;;;;8.30;5.33;;;;;;;7.86;56.47;96408.59;4366660;32;20185;-64
2022/03/24 06:50:11;;;;;;;5.93;5.43;;;;;;;7.92;56.53;96406.75;4377516;32;20280;-64
2022/03/24 06:52:36;;;;;;;8.77;5.80;;;;;;;7.86;56.79;96410.41;4385326;32;20278;-64
2022/03/24 06:55:03;;;;;;;8.27;6.53;;;;;;;7.86;57.36;96413.88;4378085;32;20283;-64
2022/03/24 06:57:29;;;;;;;7.43;5.80;;;;;;;7.89;57.80;96415.22;4370103;32;20199;-64
2022/03/24 06:59:54;;;;;;;8.30;6.50;;;;;;;8.00;57.33;96401.03;4377075;32;20288;-64
2022/03/24 07:02:19;;;;;;;11.13;6.27;;;;;;;8.03;56.82;96413.75;4378661;32;20224;-64
2022/03/24 07:04:44;;;;;;;6.87;5.87;;;;;;;8.11;57.17;96401.91;4378366;32;20177;-64
2022/03/24 07:07:10;;;;;;;6.73;5.80;;;;;;;8.17;56.80;96409.66;4372890;32;20181;-64
2022/03/24 07:09:38;;;;;;;9.93;6.33;;;;;;;8.21;57.68;96416.03;4374959;32;20218;-64
2022/03/24 07:12:03;;;;;;;6.93;5.63;;;;;;;8.33;57.07;96407.16;4375868;32;20188;-64
2022/03/24 07:14:29;;;;;;;7.27;5.73;;;;;;;8.53;54.50;96413.41;4367087;32;20305;-64
2022/03/24 07:16:54;;;;;;;9.20;5.60;;;;;;;8.66;54.62;96411.41;4374419;32;20219;-64
2022/03/24 07:19:19;;;;;;;7.53;5.53;;;;;;;8.67;54.94;96413.81;4377411;32;20185;-64
2022/03/24 07:21:45;;;;;;;8.13;5.87;;;;;;;8.72;55.29;96420.97;4378624;32;20207;-64
2022/03/24 07:24:11;;;;;;;8.27;5.00;;;;;;;8.79;53.88;96410.97;4391753;32;20188;-64
2022/03/24 07:26:36;;;;;;;14.50;5.47;;;;;;;8.86;54.91;96417.63;4384874;32;20180;-62
2022/03/24 07:29:02;;;;;;;40.90;7.67;;;;;;;8.94;54.25;96411.06;4371227;32;20216;-62
2022/03/24 07:31:28;;;;;;;20.13;5.60;;;;;;;9.47;58.74;96409.22;4365555;32;20240;-62
2022/03/24 07:33:56;;;;;;;9.80;5.40;;;;;;;9.96;62.65;96423.69;4367296;32;20189;-62
2022/03/24 07:36:22;;;;;;;20.33;6.00;;;;;;;10.17;54.65;96415.78;4365058;32;20277;-62
2022/03/24 07:38:50;;;;;;;6.27;4.80;;;;;;;10.38;55.69;96416.63;4375377;32;20292;-63
2022/03/24 07:41:17;;;;;;;6.77;4.63;;;;;;;10.73;55.39;96415.81;4370740;32;20281;-62
2022/03/24 07:43:44;;;;;;;11.57;5.53;;;;;;;10.88;52.36;96415.78;4317027;32;20378;-62
2022/03/24 07:46:14;;;;;;;4.67;4.20;;;;;;;11.06;53.22;96411.78;4380284;32;20295;-63
2022/03/24 07:48:46;;;;;;;10.93;5.37;;;;;;;11.05;48.78;96404.88;4373981;32;20293;-62
2022/03/24 07:51:11;;;;;;;8.03;4.87;;;;;;;11.10;50.04;96415.50;4370000;32;20272;-62
2022/03/24 07:53:54;;;;;;;6.37;4.23;;;;;;;11.27;48.78;96414.13;4337574;32;20293;-63
2022/03/24 07:56:41;;;;;;;5.03;4.30;;;;;;;11.48;49.95;96420.16;4368469;32;20199;-62
2022/03/24 07:59:07;;;;;;;5.27;4.83;;;;;;;11.49;47.67;96421.75;4323768;32;20278;-62
2022/03/24 08:01:36;;;;;;;5.57;4.70;;;;;;;11.61;50.43;96416.16;4361181;32;20295;-62
2022/03/24 08:04:06;;;;;;;6.17;4.37;;;;;;;11.65;47.33;96409.19;4363511;32;20341;-62
2022/03/24 08:06:35;;;;;;;4.50;4.10;;;;;;;11.72;48.64;96415.03;4363814;32;20363;-62
2022/03/24 08:09:00;;;;;;;5.23;4.50;;;;;;;11.82;48.07;96416.88;4378373;32;20368;-62
2022/03/24 08:11:27;;;;;;;5.87;4.27;;;;;;;11.90;46.92;96413.63;4351845;32;20276;-62
2022/03/24 08:13:54;;;;;;;15.40;5.60;;;;;;;11.96;45.23;96412.53;4378401;32;20254;-61
2022/03/24 08:16:24;;;;;;;8.77;4.70;;;;;;;12.04;47.25;96407.44;4341801;32;20360;-62
2022/03/24 08:18:50;;;;;;;5.00;4.50;;;;;;;12.19;47.57;96416.41;4363812;32;20223;-62
2022/03/24 08:21:15;;;;;;;9.00;4.80;;;;;;;12.23;46.87;96420.91;4370525;32;20219;-62
2022/03/24 08:23:41;;;;;;;7.47;4.40;;;;;;;12.40;46.99;96412.53;4377777;32;20192;-62
2022/03/24 08:26:06;;;;;;;6.03;4.67;;;;;;;12.38;45.64;96404.81;4365957;32;20188;-62
2022/03/24 08:28:32;;;;;;;5.80;4.73;;;;;;;12.41;44.59;96410.66;4365412;32;20181;-62
2022/03/24 08:30:58;;;;;;;8.27;4.37;;;;;;;12.46;44.58;96407.97;4363070;32;20227;-62
2022/03/24 08:33:23;;;;;;;6.47;4.57;;;;;;;12.56;45.88;96407.88;4376142;32;20252;-63
2022/03/24 08:35:48;;;;;;;5.33;4.83;;;;;;;12.57;44.67;96404.13;4374588;32;20192;-62
2022/03/24 08:38:14;;;;;;;7.37;5.03;;;;;;;12.62;42.48;96406.75;4357102;32;20184;-62
2022/03/24 08:40:40;;;;;;;8.57;5.67;;;;;;;12.83;43.55;96404.72;4361080;32;20250;-62
2022/03/24 08:43:07;;;;;;;5.90;5.40;;;;;;;12.98;42.18;96407.22;4376838;32;20220;-61
2022/03/24 08:45:33;;;;;;;7.27;5.50;;;;;;;13.13;42.26;96398.28;4377463;32;20180;-62
2022/03/24 08:47:58;;;;;;;7.27;5.30;;;;;;;13.38;40.43;96404.19;4390365;32;20191;-61
2022/03/24 08:50:24;;;;;;;8.47;5.47;;;;;;;13.63;40.59;96408.41;4382831;32;20181;-62
2022/03/24 08:52:50;;;;;;;7.20;5.13;;;;;;;13.38;38.73;96404.19;4379919;32;20204;-63
2022/03/24 08:55:16;;;;;;;6.83;5.80;;;;;;;13.22;38.57;96405.44;4367834;32;20181;-63
2022/03/24 08:57:43;;;;;;;6.80;5.93;;;;;;;13.19;39.17;96399.88;4376869;32;20294;-63
2022/03/24 09:00:12;;;;;;;8.87;5.90;;;;;;;13.21;39.09;96397.72;4362931;32;20177;-63
2022/03/24 09:02:42;;;;;;;7.47;5.70;;;;;;;13.14;39.08;96402.53;4375637;32;20187;-63
2022/03/24 09:05:08;;;;;;;8.43;5.23;;;;;;;13.12;38.68;96399.38;4376394;32;20181;-63
2022/03/24 09:07:34;;;;;;;6.20;5.70;;;;;;;13.18;38.36;96400.94;4355096;32;20199;-63
2022/03/24 09:09:59;;;;;;;6.87;6.07;;;;;;;13.22;38.27;96405.44;4375894;32;20181;-63
2022/03/24 09:12:25;;;;;;;6.63;5.93;;;;;;;13.26;37.81;96405.66;4377678;32;20232;-63
2022/03/24 09:14:50;;;;;;;7.00;6.40;;;;;;;13.43;37.69;96402.53;4389740;32;20184;-63
2022/03/24 09:17:15;;;;;;;8.20;7.40;;;;;;;13.47;37.19;96412.34;4376723;32;20263;-63
2022/03/24 09:19:41;;;;;;;13.20;11.80;;;;;;;13.60;36.49;96406.31;4389099;32;20199;-63
2022/03/24 09:22:06;;;;;;;10.03;6.90;;;;;;;13.68;36.28;96408.38;4376511;32;20176;-63
2022/03/24 09:24:33;;;;;;;7.90;6.63;;;;;;;13.74;36.02;96406.41;4381377;32;20211;-63
2022/03/24 09:26:59;;;;;;;7.47;6.53;;;;;;;13.89;34.98;96411.56;4380846;32;20204;-63
2022/03/24 09:29:25;;;;;;;6.50;6.00;;;;;;;13.91;36.10;96405.94;4361988;32;20188;-63
2022/03/24 09:31:50;;;;;;;7.00;6.37;;;;;;;13.86;35.54;96403.34;4373571;32;20192;-63
2022/03/24 09:34:16;;;;;;;7.80;6.20;;;;;;;13.98;34.84;96407.16;4376144;32;20197;-63
2022/03/24 09:36:41;;;;;;;7.87;6.20;;;;;;;14.07;34.60;96408.12;4375940;32;20188;-63
2022/03/24 09:39:07;;;;;;;7.20;6.50;;;;;;;14.10;34.58;96406.75;4376213;32;20227;-63
2022/03/24 09:41:35;;;;;;;7.90;7.13;;;;;;;14.17;33.27;96409.84;4379720;32;20225;-62
2022/03/24 09:44:00;;;;;;;7.23;6.53;;;;;;;14.12;33.14;96403.78;4368193;32;20177;-63
2022/03/24 09:46:28;;;;;;;7.73;6.90;;;;;;;14.13;33.43;96400.84;4380619;32;20228;-63
2022/03/24 09:48:54;;;;;;;9.87;7.50;;;;;;;14.41;32.37;96407.91;4362315;32;20173;-63
2022/03/24 09:51:22;;;;;;;7.33;6.63;;;;;;;14.50;32.63;96401.91;4374907;32;20196;-61
2022/03/24 09:53:48;;;;;;;7.97;7.20;;;;;;;14.52;31.84;96395.19;4390121;32;20193;-61
2022/03/24 09:56:14;;;;;;;10.23;7.33;;;;;;;14.79;31.11;96397.16;4379382;32;20192;-61
2022/03/24 09:58:42;;;;;;;7.80;7.00;;;;;;;14.87;31.32;96393.81;4389803;32;20318;-61
2022/03/24 10:01:09;;;;;;;11.23;7.67;;;;;;;14.76;32.48;96395.84;4382866;32;20207;-61
2022/03/24 10:03:34;;;;;;;8.40;7.63;;;;;;;14.78;32.95;96399.03;4374860;32;20200;-61
2022/03/24 10:06:07;;;;;;;12.37;8.80;;;;;;;14.94;32.67;96394.22;4365889;32;20207;-61
2022/03/24 10:08:36;;;;;;;9.13;8.23;;;;;;;14.91;32.83;96392.16;4360733;32;20243;-62
2022/03/24 10:11:09;;;;;;;9.67;7.80;;;;;;;14.88;32.98;96386.59;4372481;32;20188;-62
2022/03/24 10:13:51;;;;;;;9.60;8.27;;;;;;;14.91;33.50;96386.81;4385046;32;20223;-62
2022/03/24 10:16:34;;;;;;;9.20;8.27;;;;;;;15.09;32.49;96391.28;4338169;32;20206;-61
2022/03/24 10:19:15;;;;;;;12.07;8.10;;;;;;;15.17;34.12;96383.66;4354766;32;20244;-61
2022/03/24 10:21:47;;;;;;;10.07;8.90;;;;;;;15.09;33.76;96377.91;4364652;32;20203;-62
2022/03/24 10:24:20;;;;;;;11.93;9.37;;;;;;;15.23;31.88;96385.94;4368304;32;20291;-61
2022/03/24 10:26:49;;;;;;;10.63;8.87;;;;;;;15.37;30.87;96381.41;4358259;32;20192;-62
2022/03/24 10:29:18;;;;;;;14.10;9.20;;;;;;;15.37;30.53;96375.25;4359571;32;20204;-62
2022/03/24 10:31:51;;;;;;;9.70;8.80;;;;;;;15.34;31.17;96381.19;4357315;32;20190;-62
2022/03/24 10:34:27;;;;;;;11.00;8.40;;;;;;;15.31;31.15;96374.56;4359111;32;20238;-62
2022/03/24 10:36:52;;;;;;;10.67;7.93;;;;;;;15.24;31.46;96368.00;4360257;32;20184;-62
2022/03/24 10:39:23;;;;;;;8.87;7.90;;;;;;;15.39;30.51;96370.38;4359949;32;20191;-62
2022/03/24 10:41:50;;;;;;;9.77;7.77;;;;;;;15.31;32.37;96368.41;4351637;32;20189;-62
2022/03/24 10:44:15;;;;;;;9.73;8.73;;;;;;;15.33;31.23;96377.72;4366548;32;20207;-62
2022/03/24 10:46:42;;;;;;;12.67;8.33;;;;;;;15.59;30.76;96366.56;4365471;32;20185;-62
2022/03/24 10:49:26;;;;;;;10.33;8.40;;;;;;;15.72;30.91;96371.88;4360914;32;20256;-62
2022/03/24 10:51:53;;;;;;;8.13;7.40;;;;;;;15.93;30.25;96364.22;4361432;32;20189;-62
2022/03/24 10:54:48;;;;;;;10.67;8.03;;;;;;;15.92;29.10;96367.19;4358780;32;20189;-62
2022/03/24 10:57:18;;;;;;;8.70;7.90;;;;;;;15.94;29.06;96370.38;4338628;32;20284;-62
2022/03/24 10:59:47;;;;;;;10.07;9.03;;;;;;;15.90;29.37;96361.34;4362033;32;20309;-61
2022/03/24 11:02:14;;;;;;;8.73;7.80;;;;;;;15.94;29.50;96359.66;4360615;32;20265;-62
2022/03/24 11:04:43;;;;;;;9.83;8.43;;;;;;;15.91;30.75;96360.25;4351256;32;20185;-63
2022/03/24 11:07:09;;;;;;;8.37;7.60;;;;;;;15.81;29.36;96350.56;4371778;32;20199;-60
2022/03/24 11:09:35;;;;;;;10.70;8.27;;;;;;;15.80;29.51;96352.44;4372574;32;20193;-62
2022/03/24 11:12:30;;;;;;;8.73;7.93;;;;;;;15.84;29.30;96344.59;4358541;32;20193;-62
2022/03/24 11:14:58;;;;;;;9.07;8.17;;;;;;;15.96;29.01;96352.13;4357838;32;20295;-62
2022/03/24 11:17:25;;;;;;;11.47;8.23;;;;;;;16.03;29.33;96347.12;4358438;32;20181;-62
2022/03/24 11:20:22;;;;;;;8.50;7.80;;;;;;;15.99;29.32;96346.16;4360570;32;20195;-62
2022/03/24 11:22:58;;;;;;;7.70;7.00;;;;;;;16.16;28.13;96340.94;4360799;32;20260;-62
2022/03/24 11:25:26;;;;;;;9.70;8.10;;;;;;;16.09;28.79;96346.72;4347685;32;20190;-62
2022/03/24 11:27:56;;;;;;;10.63;9.53;;;;;;;16.26;27.61;96348.72;4369732;32;20198;-63
2022/03/24 11:30:24;;;;;;;7.33;6.60;;;;;;;16.30;27.44;96344.34;4367175;32;20198;-62
2022/03/24 11:32:52;;;;;;;8.20;7.40;;;;;;;16.20;30.71;96344.63;4362676;32;20242;-62
2022/03/24 11:35:19;;;;;;;7.43;6.83;;;;;;;16.15;28.24;96347.41;4359993;32;20197;-62
2022/03/24 11:37:45;;;;;;;6.27;5.73;;;;;;;16.26;26.79;96340.69;4363425;32;20202;-62
2022/03/24 11:40:16;;;;;;;8.47;7.50;;;;;;;16.19;30.87;96335.00;4363461;32;20189;-62